sensor_id;sensor_type;location;lat;lon;timestamp;pressure;altitude;pressure_sealevel;temperature;humidity
19751;BME280;4663;49.120;9.730;2023-08-07T00:01:42;60433.53;;;-151.66;100.00
19751;BME280;4663;49.120;9.730;2023-08-07T00:04:07;60433.53;;;-151.66;100.00
19751;BME280;4663;49.120;9.730;2023-08-07T00:06:32;60433.53;;;-151.66;100.00
19751;BME280;4663;49.120;9.730;2023-08-07T00:08:58;60433.53;;;-151.66;100.00
19751;BME280;4663;49.120;9.730;2023-08-07T00:11:23;60433.53;;;-151.66;100.00
19751;BME280;4663;49.120;9.730;2023-08-07T00:13:49;60433.53;;;-151.66;100.00
19751;BME280;4663;49.120;9.730;2023-08-07T00:16:14;60433.53;;;-151.66;100.00
19751;BME280;4663;49.120;9.730;2023-08-07T00:18:39;60433.53;;;-151.66;100.00
19751;BME280;4663;49.120;9.730;2023-08-07T00:21:05;60433.53;;;-151.66;100.00
19751;BME280;4663;49.120;9.730;2023-08-07T00:23:30;60433.53;;;-151.66;100.00
19751;BME280;4663;49.120;9.730;2023-08-07T00:25:55;60433.53;;;-151.66;100.00
19751;BME280;4663;49.120;9.730;2023-08-07T00:28:21;60433.53;;;-151.66;100.00
19751;BME280;4663;49.120;9.730;2023-08-07T00:30:46;60433.53;;;-151.66;100.00
19751;BME280;4663;49.120;9.730;2023-08-07T00:33:11;60433.53;;;-151.66;100.00
19751;BME280;4663;49.120;9.730;2023-08-07T00:35:37;60433.53;;;-151.66;100.00
19751;BME280;4663;49.120;9.730;2023-08-07T00:38:02;60433.53;;;-151.66;100.00
19751;BME280;4663;49.120;9.730;2023-08-07T00:40:28;60433.53;;;-151.66;100.00
19751;BME280;4663;49.120;9.730;2023-08-07T00:42:53;60433.53;;;-151.66;100.00
19751;BME280;4663;49.120;9.730;2023-08-07T00:45:19;60433.53;;;-151.66;100.00
19751;BME280;4663;49.120;9.730;2023-08-07T00:47:46;60433.53;;;-151.66;100.00
19751;BME280;4663;49.120;9.730;2023-08-07T00:50:12;60433.53;;;-151.66;100.00
19751;BME280;4663;49.120;9.730;2023-08-07T00:52:37;60433.53;;;-151.66;100.00
19751;BME280;4663;49.120;9.730;2023-08-07T00:55:03;60433.53;;;-151.66;100.00
19751;BME280;4663;49.120;9.730;2023-08-07T00:57:29;60433.53;;;-151.66;100.00
19751;BME280;4663;49.120;9.730;2023-08-07T00:59:55;60433.53;;;-151.66;100.00
19751;BME280;4663;49.120;9.730;2023-08-07T01:02:21;60433.53;;;-151.66;100.00
19751;BME280;4663;49.120;9.730;2023-08-07T01:04:46;60433.53;;;-151.66;100.00
19751;BME280;4663;49.120;9.730;2023-08-07T01:07:12;97739.16;;;18.18;68.99
19751;BME280;4663;49.120;9.730;2023-08-07T01:09:37;97741.13;;;18.43;69.78
19751;BME280;4663;49.120;9.730;2023-08-07T01:14:48;97716.31;;;19.42;65.90
19751;BME280;4663;49.120;9.730;2023-08-07T01:17:15;97721.66;;;19.30;65.90
19751;BME280;4663;49.120;9.730;2023-08-07T01:19:42;97721.66;;;19.30;65.90
19751;BME280;4663;49.120;9.730;2023-08-07T01:22:08;97720.44;;;19.25;66.44
19751;BME280;4663;49.120;9.730;2023-08-07T01:24:35;97725.88;;;20.38;63.67
19751;BME280;4663;49.120;9.730;2023-08-07T01:27:24;97736.59;;;18.95;67.15
19751;BME280;4663;49.120;9.730;2023-08-07T01:35:15;97714.03;;;18.62;66.37
19751;BME280;4663;49.120;9.730;2023-08-07T01:37:42;97719.56;;;18.81;67.91
19751;BME280;4663;49.120;9.730;2023-08-07T01:40:10;97722.28;;;18.48;66.95
19751;BME280;4663;49.120;9.730;2023-08-07T01:42:36;97721.72;;;19.23;66.94
19751;BME280;4663;49.120;9.730;2023-08-07T01:45:04;60433.53;;;-151.66;100.00
19751;BME280;4663;49.120;9.730;2023-08-07T01:47:29;97723.94;;;18.49;66.68
19751;BME280;4663;49.120;9.730;2023-08-07T01:49:55;97738.66;;;18.99;67.55
19751;BME280;4663;49.120;9.730;2023-08-07T01:52:20;97743.97;;;18.16;68.13
19751;BME280;4663;49.120;9.730;2023-08-07T01:54:46;97741.38;;;17.89;69.71
19751;BME280;4663;49.120;9.730;2023-08-07T01:57:11;97733.09;;;18.55;67.98
19751;BME280;4663;49.120;9.730;2023-08-07T01:59:37;97732.16;;;18.75;66.29
19751;BME280;4663;49.120;9.730;2023-08-07T02:02:02;97735.16;;;18.60;66.12
19751;BME280;4663;49.120;9.730;2023-08-07T02:04:28;97739.66;;;18.02;67.54
19751;BME280;4663;49.120;9.730;2023-08-07T02:06:53;97721.97;;;19.40;65.05
19751;BME280;4663;49.120;9.730;2023-08-07T02:09:19;97751.19;;;17.83;68.20
19751;BME280;4663;49.120;9.730;2023-08-07T02:11:44;97753.00;;;18.42;67.96
19751;BME280;4663;49.120;9.730;2023-08-07T02:14:10;97743.75;;;18.57;66.75
19751;BME280;4663;49.120;9.730;2023-08-07T02:16:36;97749.88;;;18.45;67.68
19751;BME280;4663;49.120;9.730;2023-08-07T02:19:01;97744.66;;;18.05;65.98
19751;BME280;4663;49.120;9.730;2023-08-07T02:21:26;97745.88;;;18.87;66.59
19751;BME280;4663;49.120;9.730;2023-08-07T02:23:52;97742.63;;;18.71;66.85
19751;BME280;4663;49.120;9.730;2023-08-07T02:26:17;97756.06;;;18.20;66.69
19751;BME280;4663;49.120;9.730;2023-08-07T02:28:42;97765.66;;;17.57;68.19
19751;BME280;4663;49.120;9.730;2023-08-07T02:31:08;97764.34;;;18.32;66.88
19751;BME280;4663;49.120;9.730;2023-08-07T02:33:33;97758.03;;;18.78;66.60
19751;BME280;4663;49.120;9.730;2023-08-07T02:35:58;97756.78;;;18.02;67.24
19751;BME280;4663;49.120;9.730;2023-08-07T02:38:25;97757.31;;;18.57;66.31
19751;BME280;4663;49.120;9.730;2023-08-07T02:40:50;97767.50;;;17.63;67.94
19751;BME280;4663;49.120;9.730;2023-08-07T02:43:16;97768.34;;;18.62;67.76
19751;BME280;4663;49.120;9.730;2023-08-07T02:45:41;97781.22;;;17.89;68.12
19751;BME280;4663;49.120;9.730;2023-08-07T02:48:06;97766.22;;;18.38;65.97
19751;BME280;4663;49.120;9.730;2023-08-07T02:50:32;97778.53;;;17.95;68.33
19751;BME280;4663;49.120;9.730;2023-08-07T02:53:01;97777.97;;;18.25;68.21
19751;BME280;4663;49.120;9.730;2023-08-07T02:55:27;97783.25;;;18.53;67.76
19751;BME280;4663;49.120;9.730;2023-08-07T02:57:52;97760.97;;;18.76;65.78
19751;BME280;4663;49.120;9.730;2023-08-07T03:00:18;97759.72;;;18.79;65.77
19751;BME280;4663;49.120;9.730;2023-08-07T03:02:43;97747.75;;;19.12;63.40
19751;BME280;4663;49.120;9.730;2023-08-07T03:05:09;97755.56;;;19.01;65.66
19751;BME280;4663;49.120;9.730;2023-08-07T03:07:34;97758.63;;;19.12;64.55
19751;BME280;4663;49.120;9.730;2023-08-07T03:10:00;97736.72;;;23.79;59.42
19751;BME280;4663;49.120;9.730;2023-08-07T03:12:25;97743.22;;;21.58;57.60
19751;BME280;4663;49.120;9.730;2023-08-07T03:14:51;97788.13;;;19.08;63.97
19751;BME280;4663;49.120;9.730;2023-08-07T03:17:16;97788.66;;;20.05;64.27
19751;BME280;4663;49.120;9.730;2023-08-07T03:19:43;97798.63;;;20.30;65.93
19751;BME280;4663;49.120;9.730;2023-08-07T03:22:09;60433.53;;;-151.66;100.00
19751;BME280;4663;49.120;9.730;2023-08-07T03:24:34;60433.53;;;-151.66;100.00
19751;BME280;4663;49.120;9.730;2023-08-07T03:26:59;60433.53;;;-151.66;100.00
19751;BME280;4663;49.120;9.730;2023-08-07T03:29:25;60433.53;;;-151.66;100.00
19751;BME280;4663;49.120;9.730;2023-08-07T03:31:50;60433.53;;;-151.66;100.00
19751;BME280;4663;49.120;9.730;2023-08-07T03:34:16;60433.53;;;-151.66;100.00
19751;BME280;4663;49.120;9.730;2023-08-07T03:36:41;60433.53;;;-151.66;100.00
19751;BME280;4663;49.120;9.730;2023-08-07T03:39:06;60433.53;;;-151.66;100.00
19751;BME280;4663;49.120;9.730;2023-08-07T03:41:32;97788.66;;;21.52;61.02
19751;BME280;4663;49.120;9.730;2023-08-07T03:43:58;60433.53;;;-151.66;100.00
19751;BME280;4663;49.120;9.730;2023-08-07T03:46:23;60433.53;;;-151.66;100.00
19751;BME280;4663;49.120;9.730;2023-08-07T03:48:49;60433.53;;;-151.66;100.00
19751;BME280;4663;49.120;9.730;2023-08-07T03:51:14;60433.53;;;-151.66;100.00
19751;BME280;4663;49.120;9.730;2023-08-07T03:53:42;60433.53;;;-151.66;100.00
19751;BME280;4663;49.120;9.730;2023-08-07T03:56:08;60433.53;;;-151.66;100.00
19751;BME280;4663;49.120;9.730;2023-08-07T03:58:33;60433.53;;;-151.66;100.00
19751;BME280;4663;49.120;9.730;2023-08-07T04:00:58;97797.88;;;21.75;59.08
19751;BME280;4663;49.120;9.730;2023-08-07T04:03:24;97816.91;;;20.91;61.89
19751;BME280;4663;49.120;9.730;2023-08-07T04:05:53;97807.16;;;21.74;60.03
19751;BME280;4663;49.120;9.730;2023-08-07T04:08:19;97812.25;;;22.06;59.96
19751;BME280;4663;49.120;9.730;2023-08-07T04:10:44;97807.88;;;21.93;59.49
19751;BME280;4663;49.120;9.730;2023-08-07T04:13:10;97812.56;;;20.03;62.06
19751;BME280;4663;49.120;9.730;2023-08-07T04:15:35;97809.03;;;22.09;59.63
19751;BME280;4663;49.120;9.730;2023-08-07T04:18:00;97803.09;;;21.41;59.45
19751;BME280;4663;49.120;9.730;2023-08-07T04:20:26;97818.22;;;19.83;61.53
19751;BME280;4663;49.120;9.730;2023-08-07T04:22:51;97816.13;;;21.15;59.52
19751;BME280;4663;49.120;9.730;2023-08-07T04:25:17;97820.53;;;21.16;61.49
19751;BME280;4663;49.120;9.730;2023-08-07T04:27:42;97793.97;;;21.71;59.34
19751;BME280;4663;49.120;9.730;2023-08-07T04:30:08;97826.16;;;20.03;62.60
19751;BME280;4663;49.120;9.730;2023-08-07T04:32:34;97801.34;;;22.35;57.82
19751;BME280;4663;49.120;9.730;2023-08-07T04:34:59;97811.28;;;20.43;60.49
19751;BME280;4663;49.120;9.730;2023-08-07T04:37:24;97810.38;;;21.35;58.99
19751;BME280;4663;49.120;9.730;2023-08-07T04:39:50;97818.41;;;22.02;58.91
19751;BME280;4663;49.120;9.730;2023-08-07T04:42:15;97821.38;;;21.76;59.88
19751;BME280;4663;49.120;9.730;2023-08-07T04:44:41;97803.81;;;22.49;56.77
19751;BME280;4663;49.120;9.730;2023-08-07T04:47:06;97815.72;;;21.90;58.74
19751;BME280;4663;49.120;9.730;2023-08-07T04:49:31;60433.53;;;-151.66;100.00
19751;BME280;4663;49.120;9.730;2023-08-07T04:51:57;97803.38;;;21.87;58.21
19751;BME280;4663;49.120;9.730;2023-08-07T04:54:22;97820.59;;;20.97;60.50
19751;BME280;4663;49.120;9.730;2023-08-07T04:56:47;97807.53;;;20.99;59.03
19751;BME280;4663;49.120;9.730;2023-08-07T04:59:13;97827.91;;;21.39;59.70
19751;BME280;4663;49.120;9.730;2023-08-07T05:01:39;97822.50;;;22.28;58.75
19751;BME280;4663;49.120;9.730;2023-08-07T05:04:04;97816.88;;;21.34;58.83
19751;BME280;4663;49.120;9.730;2023-08-07T05:06:31;97831.59;;;21.81;59.32
19751;BME280;4663;49.120;9.730;2023-08-07T05:08:56;97829.34;;;22.43;58.66
19751;BME280;4663;49.120;9.730;2023-08-07T05:11:21;97818.78;;;21.57;57.88
19751;BME280;4663;49.120;9.730;2023-08-07T05:13:47;97823.91;;;22.43;57.82
19751;BME280;4663;49.120;9.730;2023-08-07T05:16:12;97851.25;;;21.11;60.64
19751;BME280;4663;49.120;9.730;2023-08-07T05:18:38;97829.09;;;22.56;59.00
19751;BME280;4663;49.120;9.730;2023-08-07T05:21:03;97816.88;;;22.47;56.67
19751;BME280;4663;49.120;9.730;2023-08-07T05:23:28;97834.94;;;23.23;56.99
19751;BME280;4663;49.120;9.730;2023-08-07T05:25:54;97843.41;;;22.76;58.18
19751;BME280;4663;49.120;9.730;2023-08-07T05:28:19;97820.94;;;23.03;56.30
19751;BME280;4663;49.120;9.730;2023-08-07T05:30:44;97846.66;;;21.83;58.71
19751;BME280;4663;49.120;9.730;2023-08-07T05:33:10;97863.38;;;20.66;61.56
19751;BME280;4663;49.120;9.730;2023-08-07T05:35:37;97869.38;;;20.87;60.32
19751;BME280;4663;49.120;9.730;2023-08-07T05:38:03;97850.91;;;22.27;58.19
19751;BME280;4663;49.120;9.730;2023-08-07T05:40:28;97856.16;;;22.17;58.19
19751;BME280;4663;49.120;9.730;2023-08-07T05:42:55;97845.25;;;21.69;57.78
19751;BME280;4663;49.120;9.730;2023-08-07T05:45:20;97866.47;;;21.43;60.09
19751;BME280;4663;49.120;9.730;2023-08-07T05:47:45;97865.25;;;22.46;58.39
19751;BME280;4663;49.120;9.730;2023-08-07T05:50:11;97882.31;;;19.79;61.89
19751;BME280;4663;49.120;9.730;2023-08-07T05:52:36;97879.34;;;19.55;62.82
19751;BME280;4663;49.120;9.730;2023-08-07T05:55:03;97881.66;;;18.55;64.15
19751;BME280;4663;49.120;9.730;2023-08-07T05:57:28;97875.13;;;19.85;63.29
19751;BME280;4663;49.120;9.730;2023-08-07T05:59:53;97889.97;;;19.06;65.21
19751;BME280;4663;49.120;9.730;2023-08-07T06:02:19;97870.41;;;19.48;61.98
19751;BME280;4663;49.120;9.730;2023-08-07T06:04:44;97886.56;;;20.38;63.50
19751;BME280;4663;49.120;9.730;2023-08-07T06:07:10;97887.88;;;19.65;62.19
19751;BME280;4663;49.120;9.730;2023-08-07T06:09:36;97904.13;;;19.14;64.14
19751;BME280;4663;49.120;9.730;2023-08-07T06:12:01;97889.66;;;19.97;62.87
19751;BME280;4663;49.120;9.730;2023-08-07T06:14:27;97904.44;;;19.64;64.31
19751;BME280;4663;49.120;9.730;2023-08-07T06:16:53;97901.03;;;19.94;64.49
19751;BME280;4663;49.120;9.730;2023-08-07T06:19:19;97907.72;;;19.40;65.55
19751;BME280;4663;49.120;9.730;2023-08-07T06:21:45;97893.75;;;19.88;63.41
19751;BME280;4663;49.120;9.730;2023-08-07T06:24:11;97901.94;;;20.25;63.37
19751;BME280;4663;49.120;9.730;2023-08-07T06:26:37;97905.84;;;19.92;62.07
19751;BME280;4663;49.120;9.730;2023-08-07T06:29:02;97901.75;;;20.46;62.62
19751;BME280;4663;49.120;9.730;2023-08-07T06:31:28;97912.31;;;19.40;64.38
19751;BME280;4663;49.120;9.730;2023-08-07T06:33:53;97909.09;;;19.57;63.99
19751;BME280;4663;49.120;9.730;2023-08-07T06:36:19;97902.84;;;20.00;63.10
19751;BME280;4663;49.120;9.730;2023-08-07T06:38:44;97896.50;;;20.81;60.88
19751;BME280;4663;49.120;9.730;2023-08-07T06:41:10;97902.47;;;21.21;60.46
19751;BME280;4663;49.120;9.730;2023-08-07T06:43:35;97889.22;;;21.06;59.15
19751;BME280;4663;49.120;9.730;2023-08-07T06:46:00;97902.94;;;21.30;61.04
19751;BME280;4663;49.120;9.730;2023-08-07T06:48:26;97921.63;;;19.83;62.75
19751;BME280;4663;49.120;9.730;2023-08-07T06:50:51;97914.41;;;20.14;63.29
19751;BME280;4663;49.120;9.730;2023-08-07T06:53:17;97906.00;;;19.97;61.62
19751;BME280;4663;49.120;9.730;2023-08-07T06:55:43;97920.28;;;20.74;62.39
19751;BME280;4663;49.120;9.730;2023-08-07T06:58:09;97909.06;;;20.26;61.93
19751;BME280;4663;49.120;9.730;2023-08-07T07:00:35;97904.22;;;20.10;63.54
19751;BME280;4663;49.120;9.730;2023-08-07T07:03:01;97914.16;;;19.97;62.75
19751;BME280;4663;49.120;9.730;2023-08-07T07:05:27;97924.63;;;19.43;64.09
19751;BME280;4663;49.120;9.730;2023-08-07T07:07:53;97926.25;;;20.64;63.13
19751;BME280;4663;49.120;9.730;2023-08-07T07:10:20;97932.50;;;20.27;62.44
19751;BME280;4663;49.120;9.730;2023-08-07T07:12:45;97923.75;;;20.63;62.17
19751;BME280;4663;49.120;9.730;2023-08-07T07:15:10;97913.53;;;20.39;61.26
19751;BME280;4663;49.120;9.730;2023-08-07T07:17:36;97943.69;;;20.45;63.70
19751;BME280;4663;49.120;9.730;2023-08-07T07:20:01;97925.44;;;20.94;63.09
19751;BME280;4663;49.120;9.730;2023-08-07T07:22:26;97932.53;;;20.65;61.75
19751;BME280;4663;49.120;9.730;2023-08-07T07:24:54;97943.06;;;19.98;62.23
19751;BME280;4663;49.120;9.730;2023-08-07T07:27:19;97933.66;;;20.38;60.53
19751;BME280;4663;49.120;9.730;2023-08-07T07:29:45;97945.78;;;20.61;62.26
19751;BME280;4663;49.120;9.730;2023-08-07T07:32:10;97940.25;;;20.49;60.70
19751;BME280;4663;49.120;9.730;2023-08-07T07:34:35;97934.94;;;21.23;59.94
19751;BME280;4663;49.120;9.730;2023-08-07T07:37:01;97953.06;;;21.17;61.01
19751;BME280;4663;49.120;9.730;2023-08-07T07:39:26;97950.25;;;20.74;61.24
19751;BME280;4663;49.120;9.730;2023-08-07T07:41:51;97943.38;;;21.02;59.65
19751;BME280;4663;49.120;9.730;2023-08-07T07:44:17;97962.22;;;21.53;61.18
19751;BME280;4663;49.120;9.730;2023-08-07T07:46:42;97971.16;;;19.92;63.00
19751;BME280;4663;49.120;9.730;2023-08-07T07:49:08;97957.44;;;21.49;60.07
19751;BME280;4663;49.120;9.730;2023-08-07T07:51:33;97953.88;;;20.87;60.20
19751;BME280;4663;49.120;9.730;2023-08-07T07:54:00;97978.25;;;21.62;61.83
19751;BME280;4663;49.120;9.730;2023-08-07T07:56:25;97959.34;;;21.17;60.08
19751;BME280;4663;49.120;9.730;2023-08-07T07:58:51;97971.78;;;21.44;59.60
19751;BME280;4663;49.120;9.730;2023-08-07T08:01:16;98004.13;;;20.35;63.20
19751;BME280;4663;49.120;9.730;2023-08-07T08:03:43;97968.75;;;21.22;59.66
19751;BME280;4663;49.120;9.730;2023-08-07T08:06:09;97990.31;;;21.04;61.29
19751;BME280;4663;49.120;9.730;2023-08-07T08:08:34;97981.22;;;21.29;60.07
19751;BME280;4663;49.120;9.730;2023-08-07T08:10:59;97966.19;;;21.39;58.97
19751;BME280;4663;49.120;9.730;2023-08-07T08:13:25;97980.50;;;21.22;59.32
19751;BME280;4663;49.120;9.730;2023-08-07T08:15:50;97990.44;;;20.60;60.00
19751;BME280;4663;49.120;9.730;2023-08-07T08:18:16;97981.78;;;21.50;58.22
19751;BME280;4663;49.120;9.730;2023-08-07T08:20:41;97997.09;;;22.18;57.99
19751;BME280;4663;49.120;9.730;2023-08-07T08:23:06;97998.31;;;21.67;58.00
19751;BME280;4663;49.120;9.730;2023-08-07T08:25:32;97997.69;;;22.08;58.10
19751;BME280;4663;49.120;9.730;2023-08-07T08:28:00;98007.97;;;21.51;58.75
19751;BME280;4663;49.120;9.730;2023-08-07T08:30:26;98041.06;;;20.68;62.26
19751;BME280;4663;49.120;9.730;2023-08-07T08:32:51;98015.72;;;20.86;60.86
19751;BME280;4663;49.120;9.730;2023-08-07T08:35:17;98003.03;;;22.15;58.21
19751;BME280;4663;49.120;9.730;2023-08-07T08:37:42;98002.56;;;22.18;57.28
19751;BME280;4663;49.120;9.730;2023-08-07T08:40:09;98005.66;;;21.05;58.65
19751;BME280;4663;49.120;9.730;2023-08-07T08:42:39;60433.53;;;-151.66;100.00
19751;BME280;4663;49.120;9.730;2023-08-07T08:45:08;60433.53;;;-151.66;100.00
19751;BME280;4663;49.120;9.730;2023-08-07T08:47:36;98021.34;;;21.41;58.46
19751;BME280;4663;49.120;9.730;2023-08-07T08:50:06;98055.31;;;21.45;61.64
19751;BME280;4663;49.120;9.730;2023-08-07T08:52:32;98038.50;;;20.92;60.05
19751;BME280;4663;49.120;9.730;2023-08-07T08:54:58;98031.69;;;21.51;59.50
19751;BME280;4663;49.120;9.730;2023-08-07T08:57:27;98053.69;;;21.87;60.93
19751;BME280;4663;49.120;9.730;2023-08-07T08:59:53;98040.94;;;21.50;59.25
19751;BME280;4663;49.120;9.730;2023-08-07T09:02:18;98038.84;;;21.64;59.54
19751;BME280;4663;49.120;9.730;2023-08-07T09:04:45;98036.34;;;20.56;59.56
19751;BME280;4663;49.120;9.730;2023-08-07T09:07:14;98057.72;;;21.53;60.63
19751;BME280;4663;49.120;9.730;2023-08-07T09:09:40;98047.47;;;20.29;59.94
19751;BME280;4663;49.120;9.730;2023-08-07T09:12:08;98056.31;;;21.75;60.68
19751;BME280;4663;49.120;9.730;2023-08-07T09:14:37;98048.66;;;21.22;60.69
19751;BME280;4663;49.120;9.730;2023-08-07T09:17:05;98053.59;;;22.17;59.67
19751;BME280;4663;49.120;9.730;2023-08-07T09:19:30;98051.13;;;22.40;59.14
19751;BME280;4663;49.120;9.730;2023-08-07T09:21:56;98069.53;;;22.08;60.92
19751;BME280;4663;49.120;9.730;2023-08-07T09:24:21;98052.78;;;22.29;59.73
19751;BME280;4663;49.120;9.730;2023-08-07T09:26:47;98087.19;;;20.88;63.30
19751;BME280;4663;49.120;9.730;2023-08-07T09:29:13;98067.97;;;21.39;60.82
19751;BME280;4663;49.120;9.730;2023-08-07T09:31:38;98087.94;;;21.52;62.76
19751;BME280;4663;49.120;9.730;2023-08-07T09:34:04;98065.91;;;21.96;59.24
19751;BME280;4663;49.120;9.730;2023-08-07T09:36:33;98083.66;;;22.05;60.62
19751;BME280;4663;49.120;9.730;2023-08-07T09:39:03;98098.22;;;22.78;60.66
19751;BME280;4663;49.120;9.730;2023-08-07T09:41:29;98069.78;;;22.91;57.19
19751;BME280;4663;49.120;9.730;2023-08-07T09:43:56;98092.28;;;22.93;60.20
19751;BME280;4663;49.120;9.730;2023-08-07T09:46:22;98088.25;;;22.71;59.61
19751;BME280;4663;49.120;9.730;2023-08-07T09:48:48;98098.47;;;21.48;62.23
19751;BME280;4663;49.120;9.730;2023-08-07T09:51:13;98090.56;;;23.57;59.12
19751;BME280;4663;49.120;9.730;2023-08-07T09:53:39;98095.09;;;23.10;58.16
19751;BME280;4663;49.120;9.730;2023-08-07T09:56:05;98096.03;;;24.15;58.84
19751;BME280;4663;49.120;9.730;2023-08-07T09:58:31;98097.94;;;24.49;57.81
19751;BME280;4663;49.120;9.730;2023-08-07T10:01:00;98075.34;;;23.20;56.09
19751;BME280;4663;49.120;9.730;2023-08-07T10:03:26;98112.69;;;23.67;59.08
19751;BME280;4663;49.120;9.730;2023-08-07T10:05:51;98125.28;;;21.89;64.82
19751;BME280;4663;49.120;9.730;2023-08-07T10:08:18;98102.09;;;22.46;61.43
19751;BME280;4663;49.120;9.730;2023-08-07T10:10:44;98091.97;;;23.30;60.93
19751;BME280;4663;49.120;9.730;2023-08-07T10:13:12;98103.22;;;23.46;61.92
19751;BME280;4663;49.120;9.730;2023-08-07T10:15:39;98110.31;;;22.46;62.85
19751;BME280;4663;49.120;9.730;2023-08-07T10:18:06;98106.53;;;22.83;63.48
19751;BME280;4663;49.120;9.730;2023-08-07T10:20:31;98102.78;;;22.17;61.96
19751;BME280;4663;49.120;9.730;2023-08-07T10:23:08;98089.97;;;23.13;62.49
19751;BME280;4663;49.120;9.730;2023-08-07T10:25:35;98080.06;;;23.36;58.69
19751;BME280;4663;49.120;9.730;2023-08-07T10:28:03;98067.69;;;22.69;58.28
19751;BME280;4663;49.120;9.730;2023-08-07T10:30:31;98104.16;;;23.81;59.73
19751;BME280;4663;49.120;9.730;2023-08-07T10:32:58;98096.06;;;23.57;58.39
19751;BME280;4663;49.120;9.730;2023-08-07T10:35:30;98111.94;;;23.19;60.36
19751;BME280;4663;49.120;9.730;2023-08-07T10:38:05;98108.84;;;23.39;61.41
19751;BME280;4663;49.120;9.730;2023-08-07T10:40:32;98107.25;;;22.90;61.50
19751;BME280;4663;49.120;9.730;2023-08-07T10:42:59;98106.63;;;23.12;60.38
19751;BME280;4663;49.120;9.730;2023-08-07T10:45:26;98112.34;;;22.98;61.67
19751;BME280;4663;49.120;9.730;2023-08-07T10:50:34;98114.22;;;22.50;62.20
19751;BME280;4663;49.120;9.730;2023-08-07T10:53:04;98106.38;;;22.54;61.02
19751;BME280;4663;49.120;9.730;2023-08-07T10:55:45;98095.56;;;23.60;60.28
19751;BME280;4663;49.120;9.730;2023-08-07T10:58:33;98087.38;;;22.35;58.19
19751;BME280;4663;49.120;9.730;2023-08-07T11:03:58;98093.63;;;24.19;58.76
19751;BME280;4663;49.120;9.730;2023-08-07T11:06:29;98094.78;;;22.70;59.46
19751;BME280;4663;49.120;9.730;2023-08-07T11:08:57;98105.53;;;21.87;60.77
19751;BME280;4663;49.120;9.730;2023-08-07T11:11:22;98115.50;;;21.62;61.97
19751;BME280;4663;49.120;9.730;2023-08-07T11:13:48;98101.28;;;21.41;60.10
19751;BME280;4663;49.120;9.730;2023-08-07T11:16:13;98124.88;;;21.85;64.36
19751;BME280;4663;49.120;9.730;2023-08-07T11:18:39;98123.22;;;21.65;64.53
19751;BME280;4663;49.120;9.730;2023-08-07T11:21:11;98106.84;;;21.16;62.33
19751;BME280;4663;49.120;9.730;2023-08-07T11:23:37;98129.75;;;21.64;64.40
19751;BME280;4663;49.120;9.730;2023-08-07T11:26:03;98119.38;;;21.54;61.79
19751;BME280;4663;49.120;9.730;2023-08-07T11:28:29;98116.19;;;22.19;62.70
19751;BME280;4663;49.120;9.730;2023-08-07T11:30:54;98123.53;;;22.18;62.32
19751;BME280;4663;49.120;9.730;2023-08-07T11:33:25;98129.88;;;22.31;61.88
19751;BME280;4663;49.120;9.730;2023-08-07T11:35:51;98129.81;;;22.73;63.47
19751;BME280;4663;49.120;9.730;2023-08-07T11:38:30;98122.44;;;22.50;61.54
19751;BME280;4663;49.120;9.730;2023-08-07T11:40:57;98119.94;;;22.37;60.67
19751;BME280;4663;49.120;9.730;2023-08-07T11:43:24;98122.78;;;21.99;60.93
19751;BME280;4663;49.120;9.730;2023-08-07T11:45:50;98139.00;;;18.66;68.17
19751;BME280;4663;49.120;9.730;2023-08-07T11:48:15;98145.41;;;19.85;69.93
19751;BME280;4663;49.120;9.730;2023-08-07T11:50:41;98139.03;;;17.63;70.55
19751;BME280;4663;49.120;9.730;2023-08-07T11:53:06;98137.53;;;18.91;69.94
19751;BME280;4663;49.120;9.730;2023-08-07T11:55:33;98138.75;;;18.07;70.74
19751;BME280;4663;49.120;9.730;2023-08-07T11:58:02;98144.25;;;18.54;74.33
19751;BME280;4663;49.120;9.730;2023-08-07T12:00:29;98147.09;;;17.98;73.58
19751;BME280;4663;49.120;9.730;2023-08-07T12:02:54;98143.81;;;18.71;72.31
19751;BME280;4663;49.120;9.730;2023-08-07T12:05:20;98141.47;;;17.38;70.10
19751;BME280;4663;49.120;9.730;2023-08-07T12:07:47;98151.56;;;17.57;71.22
19751;BME280;4663;49.120;9.730;2023-08-07T12:10:12;98150.56;;;17.79;70.65
19751;BME280;4663;49.120;9.730;2023-08-07T12:12:38;98159.91;;;18.72;71.30
19751;BME280;4663;49.120;9.730;2023-08-07T12:15:08;98164.69;;;19.04;71.63
19751;BME280;4663;49.120;9.730;2023-08-07T12:17:34;98168.88;;;18.66;73.02
19751;BME280;4663;49.120;9.730;2023-08-07T12:20:00;98173.06;;;18.42;74.40
19751;BME280;4663;49.120;9.730;2023-08-07T12:22:27;98167.19;;;18.38;73.21
19751;BME280;4663;49.120;9.730;2023-08-07T12:24:56;98172.63;;;18.38;74.06
19751;BME280;4663;49.120;9.730;2023-08-07T12:27:21;98178.69;;;18.60;73.91
19751;BME280;4663;49.120;9.730;2023-08-07T12:29:47;98187.59;;;17.44;75.11
19751;BME280;4663;49.120;9.730;2023-08-07T12:32:12;98185.94;;;18.06;75.79
19751;BME280;4663;49.120;9.730;2023-08-07T12:34:37;98187.75;;;17.85;73.51
19751;BME280;4663;49.120;9.730;2023-08-07T12:37:04;98174.41;;;17.34;72.71
19751;BME280;4663;49.120;9.730;2023-08-07T12:39:29;98189.81;;;15.89;76.76
19751;BME280;4663;49.120;9.730;2023-08-07T12:41:54;98200.75;;;15.66;79.04
19751;BME280;4663;49.120;9.730;2023-08-07T12:44:20;98206.03;;;16.70;82.87
19751;BME280;4663;49.120;9.730;2023-08-07T12:46:45;98202.09;;;16.51;83.63
19751;BME280;4663;49.120;9.730;2023-08-07T12:49:11;98197.41;;;16.16;80.85
19751;BME280;4663;49.120;9.730;2023-08-07T12:51:36;98197.34;;;16.31;78.70
19751;BME280;4663;49.120;9.730;2023-08-07T12:54:02;98194.34;;;16.69;77.20
19751;BME280;4663;49.120;9.730;2023-08-07T12:56:27;98194.72;;;16.88;79.15
19751;BME280;4663;49.120;9.730;2023-08-07T12:58:52;98200.44;;;16.50;76.77
19751;BME280;4663;49.120;9.730;2023-08-07T13:01:18;98195.22;;;15.89;76.94
19751;BME280;4663;49.120;9.730;2023-08-07T13:03:43;98199.69;;;16.84;76.01
19751;BME280;4663;49.120;9.730;2023-08-07T13:06:09;98197.53;;;17.02;77.45
19751;BME280;4663;49.120;9.730;2023-08-07T13:08:36;98200.13;;;17.52;75.92
19751;BME280;4663;49.120;9.730;2023-08-07T13:11:02;98194.97;;;17.64;75.17
19751;BME280;4663;49.120;9.730;2023-08-07T13:13:27;98212.41;;;16.62;75.76
19751;BME280;4663;49.120;9.730;2023-08-07T13:15:53;98208.25;;;17.17;75.03